createdAt,value
2018-04-18T00:06:30.989Z,101870
2018-04-18T00:21:31.171Z,101870
2018-04-18T00:24:00.637Z,101882
2018-04-18T00:26:28.816Z,101878
2018-04-18T00:28:57.042Z,101876
2018-04-18T00:31:25.225Z,101884
2018-04-18T00:33:53.446Z,101882
2018-04-18T00:36:32.886Z,101885
2018-04-18T00:39:31.739Z,101889
2018-04-18T00:42:00.069Z,101892
2018-04-18T00:44:32.850Z,101893
2018-04-18T00:51:06.663Z,101890
2018-04-18T00:53:35.655Z,101890
2018-04-18T00:56:04.277Z,101897
2018-04-18T00:58:32.475Z,101892
2018-04-18T01:09:57.538Z,101898
2018-04-18T01:12:25.723Z,101893
2018-04-18T01:14:53.919Z,101903
2018-04-18T01:17:22.197Z,101905
2018-04-18T01:19:50.381Z,101903
2018-04-18T01:22:32.506Z,101899
2018-04-18T01:25:00.708Z,101900
2018-04-18T01:27:28.925Z,101901
2018-04-18T01:29:57.148Z,101896
2018-04-18T01:32:25.379Z,101897
2018-04-18T01:37:54.402Z,101901
2018-04-18T01:40:33.606Z,101902
2018-04-18T01:43:02.389Z,101903
2018-04-18T01:45:30.579Z,101902
2018-04-18T01:47:59.576Z,101898
2018-04-18T01:50:28.629Z,101903
2018-04-18T01:52:56.814Z,101899
2018-04-18T01:55:24.998Z,101909
2018-04-18T01:57:53.278Z,101914
2018-04-18T02:00:21.460Z,101910
2018-04-18T02:05:50.274Z,101915
2018-04-18T02:08:19.231Z,101934
2018-04-18T02:10:47.427Z,101926
2018-04-18T02:13:15.731Z,101924
2018-04-18T02:15:43.919Z,101935
2018-04-18T02:18:12.097Z,101934
2018-04-18T02:20:40.413Z,101934
2018-04-18T02:23:30.831Z,101927
2018-04-18T02:26:00.123Z,101938
2018-04-18T02:28:28.311Z,101940
2018-04-18T02:34:00.644Z,101933
2018-04-18T02:36:28.833Z,101939
2018-04-18T02:38:57.037Z,101939
2018-04-18T02:41:26.220Z,101946
2018-04-18T02:43:55.998Z,101953
2018-04-18T02:46:24.187Z,101941
2018-04-18T02:48:52.419Z,101946
2018-04-18T02:51:20.612Z,101934
2018-04-18T02:53:48.803Z,101942
2018-04-18T02:56:17.011Z,101942
2018-04-18T02:58:45.994Z,101949
2018-04-18T03:01:15.686Z,101947
2018-04-18T03:03:43.906Z,101953
2018-04-18T03:06:12.088Z,101952
2018-04-18T03:08:40.280Z,101947
2018-04-18T03:11:32.353Z,101948
2018-04-18T03:14:31.862Z,101953
2018-04-18T03:17:00.847Z,101948
2018-04-18T03:19:29.830Z,101943
2018-04-18T03:24:58.786Z,101947
2018-04-18T03:27:33.239Z,101949
2018-04-18T03:30:01.445Z,101956
2018-04-18T03:32:29.644Z,101962
2018-04-18T03:34:58.605Z,101966
2018-04-18T03:37:26.821Z,101969
2018-04-18T03:39:55.779Z,101974
2018-04-18T03:42:32.968Z,101969
2018-04-18T03:45:01.972Z,101976
2018-04-18T03:47:30.935Z,101980
2018-04-18T03:49:59.235Z,101982
2018-04-18T03:52:34.718Z,101983
2018-04-18T03:55:32.874Z,101976
2018-04-18T03:58:01.848Z,101980
2018-04-18T04:00:30.114Z,101974
2018-04-18T04:02:58.380Z,101986
2018-04-18T04:05:26.667Z,101990
2018-04-18T04:07:56.457Z,101995
2018-04-18T04:10:32.232Z,101992
2018-04-18T04:13:00.417Z,101992
2018-04-18T04:15:29.393Z,102007
2018-04-18T04:18:16.106Z,102001
2018-04-18T04:21:02.914Z,102008
2018-04-18T04:23:52.215Z,102012
2018-04-18T04:26:20.425Z,102010
2018-04-18T04:28:48.724Z,102019
2018-04-18T04:31:16.966Z,102020
2018-04-18T04:36:46.699Z,102028
2018-04-18T04:39:14.886Z,102018
2018-04-18T04:41:43.074Z,102016
2018-04-18T04:44:12.246Z,102025
2018-04-18T04:46:40.434Z,102016
2018-04-18T04:49:08.735Z,102027
2018-04-18T04:51:36.968Z,102021
2018-04-18T04:54:05.141Z,102027
2018-04-18T04:56:33.325Z,102029
2018-04-18T04:59:01.549Z,102030
2018-04-18T05:01:34.339Z,102033
2018-04-18T05:04:02.572Z,102043
2018-04-18T05:06:34.301Z,102033
2018-04-18T05:09:02.507Z,102040
2018-04-18T05:11:30.747Z,102036
2018-04-18T05:13:58.938Z,102037
2018-04-18T05:16:27.963Z,102044
2018-04-18T05:18:56.943Z,102042
2018-04-18T05:21:25.131Z,102061
2018-04-18T05:23:54.091Z,102060
2018-04-18T05:26:22.308Z,102059
2018-04-18T05:28:51.253Z,102058
2018-04-18T05:31:19.434Z,102059
2018-04-18T05:33:47.660Z,102062
2018-04-18T05:36:32.418Z,102054
2018-04-18T06:06:32.423Z,102089
2018-04-18T06:12:31.375Z,102085
2018-04-18T06:21:31.699Z,102099
2018-04-18T06:30:31.851Z,102100
2018-04-18T06:42:31.423Z,102117
2018-04-18T06:44:59.605Z,102116
2018-04-18T06:47:27.781Z,102122
2018-04-18T06:49:55.995Z,102121
2018-04-18T06:52:25.205Z,102119
2018-04-18T06:54:54.911Z,102127
2018-04-18T06:57:23.136Z,102118
2018-04-18T07:39:31.304Z,102144
2018-04-18T07:48:31.966Z,102151
2018-04-18T07:57:31.420Z,102156
2018-04-18T07:59:59.639Z,102156
2018-04-18T08:02:34.249Z,102154
2018-04-18T08:05:33.050Z,102160
2018-04-18T08:10:52.646Z,102151
2018-04-18T09:00:04.541Z,102148
2018-04-18T09:05:33.351Z,102152
2018-04-18T09:08:02.472Z,102146
2018-04-18T09:10:33.918Z,102141
2018-04-18T09:13:32.299Z,102142
2018-04-18T09:16:05.615Z,102144
2018-04-18T09:18:34.773Z,102153
2018-04-18T09:21:23.481Z,102146
2018-04-18T09:27:13.930Z,102147
2018-04-18T09:32:33.625Z,102147
2018-04-18T09:35:32.280Z,102140
2018-04-18T09:41:31.884Z,102137
2018-04-18T09:47:14.370Z,102143
2018-04-18T09:52:33.409Z,102138
2018-04-18T09:55:32.137Z,102136
2018-04-18T10:04:06.672Z,102134
2018-04-18T10:06:34.853Z,102141
2018-04-18T10:09:33.135Z,102141
2018-04-18T10:12:31.293Z,102138
2018-04-18T10:18:00.451Z,102142
2018-04-18T10:20:32.850Z,102137
2018-04-18T10:23:31.331Z,102134
2018-04-18T10:29:17.783Z,102134
2018-04-18T10:34:45.967Z,102130
2018-04-18T10:37:33.794Z,102135
2018-04-18T10:40:02.353Z,102135
2018-04-18T10:42:33.131Z,102118
2018-04-18T10:45:31.745Z,102122
2018-04-18T10:54:32.053Z,102127
2018-04-18T10:57:20.530Z,102108
2018-04-18T11:45:07.874Z,102101
2018-04-18T11:47:36.162Z,102090
2018-04-18T11:50:32.198Z,102092
2018-04-18T11:53:31.806Z,102104
2018-04-18T11:59:31.575Z,102097
2018-04-18T12:05:08.222Z,102092
2018-04-18T12:07:36.489Z,102091
2018-04-18T12:10:11.737Z,102092
2018-04-18T12:12:40.022Z,102093
2018-04-18T12:15:08.997Z,102096
2018-04-18T12:17:37.283Z,102097
2018-04-18T12:20:31.780Z,102093
2018-04-18T12:26:31.753Z,102089
2018-04-18T12:35:10.307Z,102081
2018-04-18T12:37:38.492Z,102085
2018-04-18T12:40:32.790Z,102069
2018-04-18T12:46:31.627Z,102073
2018-04-18T12:55:08.650Z,102063
2018-04-18T12:57:36.860Z,102063
2018-04-18T13:00:32.129Z,102063
2018-04-18T13:09:31.440Z,102056
2018-04-18T13:18:31.992Z,102052
2018-04-18T13:30:32.087Z,102044
2018-04-18T13:39:32.234Z,102044
2018-04-18T13:48:31.891Z,102031
2018-04-18T13:57:31.796Z,102028
2018-04-18T14:00:00.158Z,102019
2018-04-18T14:02:34.809Z,102018
2018-04-18T14:05:32.068Z,102023
2018-04-18T14:11:31.733Z,102022
2018-04-18T14:17:31.363Z,102013
2018-04-18T14:29:01.811Z,102010
2018-04-18T14:31:30.179Z,102006
2018-04-18T14:36:59.009Z,101995
2018-04-18T14:39:28.009Z,101992
2018-04-18T14:41:56.953Z,101988
2018-04-18T14:44:25.220Z,101998
2018-04-18T14:46:54.574Z,101999
2018-04-18T14:49:23.614Z,101991
2018-04-18T14:51:54.739Z,101998
2018-04-18T14:54:33.411Z,101989
2018-04-18T14:57:01.703Z,101984
2018-04-18T14:59:30.669Z,101987
2018-04-18T15:01:59.039Z,101993
2018-04-18T15:04:27.465Z,101996
2018-04-18T15:06:56.431Z,101992
2018-04-18T15:09:34.326Z,101989
2018-04-18T15:12:03.327Z,101992
2018-04-18T15:14:31.561Z,101998
2018-04-18T15:17:01.019Z,101982
2018-04-18T15:19:33.579Z,101975
2018-04-18T15:22:02.617Z,101971
2018-04-18T15:24:30.860Z,101977
2018-04-18T15:33:31.365Z,101998
2018-04-18T15:45:31.867Z,101991
2018-04-18T15:57:32.123Z,101985
2018-04-18T16:03:31.567Z,101977
2018-04-18T16:21:32.063Z,101976
2018-04-18T16:27:01.589Z,101970
2018-04-18T16:29:43.947Z,101964
2018-04-18T16:32:32.332Z,101966
2018-04-18T16:35:31.840Z,101968
2018-04-18T16:41:00.986Z,101966
2018-04-18T16:43:35.291Z,101962
2018-04-18T16:49:31.585Z,101966
2018-04-18T16:55:31.618Z,101963
2018-04-18T16:58:00.757Z,101965
2018-04-18T17:00:29.031Z,101960
2018-04-18T17:02:58.132Z,101958
2018-04-18T17:05:34.152Z,101964
2018-04-18T17:08:32.609Z,101965
2018-04-18T17:17:02.271Z,101960
2018-04-18T17:19:30.477Z,101967
2018-04-18T17:21:58.657Z,101954
2018-04-18T17:24:33.409Z,101959
2018-04-18T17:27:02.777Z,101959
2018-04-18T17:29:30.991Z,101966
2018-04-18T17:32:00.138Z,101967
2018-04-18T17:34:28.322Z,101963
2018-04-18T17:36:56.505Z,101971
2018-04-18T17:39:25.595Z,101974
2018-04-18T17:44:55.333Z,101976
2018-04-18T17:47:23.523Z,101973
2018-04-18T17:52:53.691Z,101972
2018-04-18T17:55:23.334Z,101970
2018-04-18T18:00:52.765Z,101981
2018-04-18T18:03:20.942Z,101975
2018-04-18T18:05:49.164Z,101980
2018-04-18T18:08:32.766Z,101977
2018-04-18T18:11:01.732Z,101983
2018-04-18T18:13:33.868Z,101981
2018-04-18T18:16:02.053Z,101987
2018-04-18T18:18:34.194Z,101984
2018-04-18T18:21:02.471Z,101998
2018-04-18T18:23:34.507Z,101989
2018-04-18T18:26:04.248Z,101997
2018-04-18T18:28:34.111Z,101992
2018-04-18T18:31:02.377Z,101995
2018-04-18T18:33:30.689Z,101995
2018-04-18T18:42:00.567Z,102002
2018-04-18T18:44:28.756Z,101996
2018-04-18T18:46:56.962Z,101999
2018-04-18T18:49:25.207Z,102002
2018-04-18T18:51:53.419Z,102002
2018-04-18T18:54:36.689Z,102011
2018-04-18T18:57:21.950Z,102021
2018-04-18T19:02:51.446Z,102012
2018-04-18T19:05:33.282Z,102006
2018-04-18T19:08:01.510Z,102010
2018-04-18T19:10:29.794Z,102002
2018-04-18T19:12:57.978Z,102016
2018-04-18T19:15:27.546Z,102008
2018-04-18T19:23:57.831Z,102013
2018-04-18T19:26:26.020Z,102011
2018-04-18T19:28:54.999Z,102009
2018-04-18T19:31:33.215Z,102006
2018-04-18T19:34:03.044Z,102019
2018-04-18T19:36:35.020Z,102022
2018-04-18T19:39:03.256Z,102014
2018-04-18T19:41:31.487Z,102019
2018-04-18T19:43:59.710Z,102018
2018-04-18T19:46:28.654Z,102001
2018-04-18T19:48:56.845Z,102011
2018-04-18T19:51:25.077Z,102018
2018-04-18T19:53:54.043Z,102008
2018-04-18T19:56:33.611Z,102009
2018-04-18T19:59:01.867Z,102006
2018-04-18T20:01:33.926Z,102013
2018-04-18T20:04:02.889Z,102020
2018-04-18T20:06:31.076Z,102009
2018-04-18T20:08:59.312Z,102007
2018-04-18T20:11:33.505Z,102001
2018-04-18T20:14:01.752Z,102010
2018-04-18T20:16:30.720Z,102018
2018-04-18T20:18:58.924Z,102025
2018-04-18T20:21:34.157Z,102025
2018-04-18T20:24:33.055Z,102021
2018-04-18T20:27:02.042Z,102013
2018-04-18T20:29:34.004Z,102015
2018-04-18T20:32:02.281Z,102012
2018-04-18T20:34:30.557Z,102009
2018-04-18T20:36:58.757Z,102011
2018-04-18T20:39:27.010Z,102021
2018-04-18T20:41:55.990Z,102019
2018-04-18T20:44:26.687Z,102011
2018-04-18T20:46:54.883Z,102014
2018-04-18T20:49:26.717Z,102014
2018-04-18T20:51:55.039Z,102008
2018-04-18T20:54:33.293Z,102011
2018-04-18T21:00:02.150Z,102014
2018-04-18T21:02:30.422Z,102018
2018-04-18T21:04:58.767Z,102011
2018-04-18T21:07:33.530Z,102008
2018-04-18T21:10:01.774Z,102011
2018-04-18T21:12:33.161Z,102011
2018-04-18T21:15:31.805Z,102016
2018-04-18T21:18:00.016Z,102011
2018-04-18T21:23:41.828Z,102032
2018-04-18T21:26:10.008Z,102036
2018-04-18T21:28:38.283Z,102034
2018-04-18T21:31:06.490Z,102032
2018-04-18T21:33:34.730Z,102033
2018-04-18T21:36:03.007Z,102031
2018-04-18T21:38:31.329Z,102036
2018-04-18T21:41:00.255Z,102027
2018-04-18T21:43:34.904Z,102042
2018-04-18T21:46:03.170Z,102032
2018-04-18T21:48:32.114Z,102041
2018-04-18T21:51:00.349Z,102044
2018-04-18T21:53:35.788Z,102050
2018-04-18T21:56:04.189Z,102050
2018-04-18T21:58:33.158Z,102041
2018-04-18T22:01:02.111Z,102045
2018-04-18T22:03:34.002Z,102045
2018-04-18T22:06:02.943Z,102050
2018-04-18T22:08:34.719Z,102041
2018-04-18T22:11:02.905Z,102040
2018-04-18T22:13:31.208Z,102038
2018-04-18T22:16:00.227Z,102043
2018-04-18T22:18:28.404Z,102049
2018-04-18T22:20:56.587Z,102045
2018-04-18T22:23:33.215Z,102050
2018-04-18T22:26:01.553Z,102039
2018-04-18T22:28:29.742Z,102043
2018-04-18T22:30:57.960Z,102053
2018-04-18T22:33:33.936Z,102060
2018-04-18T22:36:32.001Z,102048
2018-04-18T22:39:00.949Z,102046
2018-04-18T22:41:29.137Z,102049
2018-04-18T22:43:57.401Z,102051
2018-04-18T22:46:26.015Z,102058
2018-04-18T22:48:54.988Z,102050
2018-04-18T22:51:23.253Z,102054
2018-04-18T22:53:52.938Z,102056
2018-04-18T22:56:21.458Z,102063
2018-04-18T22:58:49.722Z,102051
2018-04-18T23:01:19.430Z,102056
2018-04-18T23:03:49.151Z,102054
2018-04-18T23:06:17.427Z,102052
2018-04-18T23:08:45.699Z,102051
2018-04-18T23:11:13.977Z,102047
2018-04-18T23:13:42.246Z,102048
2018-04-18T23:16:10.936Z,102043
2018-04-18T23:18:39.129Z,102046
2018-04-18T23:21:08.116Z,102044
2018-04-18T23:23:37.359Z,102038
2018-04-18T23:26:05.577Z,102040
2018-04-18T23:28:33.852Z,102037
2018-04-18T23:31:02.029Z,102042
2018-04-18T23:33:31.018Z,102036
2018-04-18T23:35:59.287Z,102044
2018-04-18T23:38:27.522Z,102039
2018-04-18T23:40:55.744Z,102046
2018-04-18T23:43:24.721Z,102051
2018-04-18T23:48:54.767Z,102046
2018-04-18T23:51:22.920Z,102039
2018-04-18T23:53:51.214Z,102046
2018-04-18T23:56:32.813Z,102041
